sensor_id;sensor_type;location;lat;lon;timestamp;temperature;humidity
41644;DHT22;44236;48.098;11.582;2023-12-20T00:00:57;24.50;34.40
41644;DHT22;44236;48.098;11.582;2023-12-20T00:03:23;24.30;34.60
41644;DHT22;44236;48.098;11.582;2023-12-20T00:05:49;24.10;34.90
41644;DHT22;44236;48.098;11.582;2023-12-20T00:08:15;23.90;35.00
41644;DHT22;44236;48.098;11.582;2023-12-20T00:10:40;23.70;35.20
41644;DHT22;44236;48.098;11.582;2023-12-20T00:13:07;23.60;35.50
41644;DHT22;44236;48.098;11.582;2023-12-20T00:15:33;23.40;35.70
41644;DHT22;44236;48.098;11.582;2023-12-20T00:17:59;23.30;35.90
41644;DHT22;44236;48.098;11.582;2023-12-20T00:20:24;23.10;36.10
41644;DHT22;44236;48.098;11.582;2023-12-20T00:22:50;23.00;36.10
41644;DHT22;44236;48.098;11.582;2023-12-20T00:25:16;22.90;36.30
41644;DHT22;44236;48.098;11.582;2023-12-20T00:27:41;22.80;36.40
41644;DHT22;44236;48.098;11.582;2023-12-20T00:30:08;22.70;36.60
41644;DHT22;44236;48.098;11.582;2023-12-20T00:32:35;22.50;36.70
41644;DHT22;44236;48.098;11.582;2023-12-20T00:35:01;22.40;36.90
41644;DHT22;44236;48.098;11.582;2023-12-20T00:37:26;22.30;37.70
41644;DHT22;44236;48.098;11.582;2023-12-20T00:39:52;22.20;37.50
41644;DHT22;44236;48.098;11.582;2023-12-20T00:42:17;22.10;37.60
41644;DHT22;44236;48.098;11.582;2023-12-20T00:44:43;22.10;38.20
41644;DHT22;44236;48.098;11.582;2023-12-20T00:47:08;22.00;37.90
41644;DHT22;44236;48.098;11.582;2023-12-20T00:49:34;21.80;38.00
41644;DHT22;44236;48.098;11.582;2023-12-20T00:52:00;21.80;38.10
41644;DHT22;44236;48.098;11.582;2023-12-20T00:54:25;21.70;38.20
41644;DHT22;44236;48.098;11.582;2023-12-20T00:56:51;21.60;38.20
41644;DHT22;44236;48.098;11.582;2023-12-20T00:59:16;21.60;38.40
41644;DHT22;44236;48.098;11.582;2023-12-20T01:01:43;21.50;38.60
41644;DHT22;44236;48.098;11.582;2023-12-20T01:04:08;21.40;38.60
41644;DHT22;44236;48.098;11.582;2023-12-20T01:06:34;21.40;38.70
41644;DHT22;44236;48.098;11.582;2023-12-20T01:09:00;21.30;38.80
41644;DHT22;44236;48.098;11.582;2023-12-20T01:11:25;21.20;38.90
41644;DHT22;44236;48.098;11.582;2023-12-20T01:13:51;21.20;39.10
41644;DHT22;44236;48.098;11.582;2023-12-20T01:16:16;21.10;39.00
41644;DHT22;44236;48.098;11.582;2023-12-20T01:18:42;21.00;39.10
41644;DHT22;44236;48.098;11.582;2023-12-20T01:21:07;21.00;39.20
41644;DHT22;44236;48.098;11.582;2023-12-20T01:23:33;21.00;39.20
41644;DHT22;44236;48.098;11.582;2023-12-20T01:25:59;20.90;39.40
41644;DHT22;44236;48.098;11.582;2023-12-20T01:28:28;20.80;39.40
41644;DHT22;44236;48.098;11.582;2023-12-20T01:30:53;20.80;39.40
41644;DHT22;44236;48.098;11.582;2023-12-20T01:33:19;20.80;39.50
41644;DHT22;44236;48.098;11.582;2023-12-20T01:35:44;20.70;39.50
41644;DHT22;44236;48.098;11.582;2023-12-20T01:38:10;20.70;39.60
41644;DHT22;44236;48.098;11.582;2023-12-20T01:40:36;20.70;39.60
41644;DHT22;44236;48.098;11.582;2023-12-20T01:43:06;20.60;39.60
41644;DHT22;44236;48.098;11.582;2023-12-20T01:45:32;20.50;39.60
41644;DHT22;44236;48.098;11.582;2023-12-20T01:47:58;20.50;39.80
41644;DHT22;44236;48.098;11.582;2023-12-20T01:50:25;20.50;39.80
41644;DHT22;44236;48.098;11.582;2023-12-20T01:52:52;20.40;39.80
41644;DHT22;44236;48.098;11.582;2023-12-20T01:55:21;20.40;39.90
41644;DHT22;44236;48.098;11.582;2023-12-20T01:57:47;20.40;40.00
41644;DHT22;44236;48.098;11.582;2023-12-20T02:00:13;20.50;40.10
41644;DHT22;44236;48.098;11.582;2023-12-20T02:02:40;19.90;39.80
41644;DHT22;44236;48.098;11.582;2023-12-20T02:05:06;20.20;40.10
41644;DHT22;44236;48.098;11.582;2023-12-20T02:07:32;20.20;40.00
41644;DHT22;44236;48.098;11.582;2023-12-20T02:10:00;20.20;40.10
41644;DHT22;44236;48.098;11.582;2023-12-20T02:12:26;20.10;40.10
41644;DHT22;44236;48.098;11.582;2023-12-20T02:14:51;20.10;40.20
41644;DHT22;44236;48.098;11.582;2023-12-20T02:17:17;20.10;40.40
41644;DHT22;44236;48.098;11.582;2023-12-20T02:19:43;20.50;40.50
41644;DHT22;44236;48.098;11.582;2023-12-20T02:22:12;20.10;40.30
41644;DHT22;44236;48.098;11.582;2023-12-20T02:24:38;20.00;40.40
41644;DHT22;44236;48.098;11.582;2023-12-20T02:27:06;20.00;40.40
41644;DHT22;44236;48.098;11.582;2023-12-20T02:29:33;20.00;40.90
41644;DHT22;44236;48.098;11.582;2023-12-20T02:31:59;19.90;40.50
41644;DHT22;44236;48.098;11.582;2023-12-20T02:34:24;19.90;40.40
41644;DHT22;44236;48.098;11.582;2023-12-20T02:36:50;19.90;40.50
41644;DHT22;44236;48.098;11.582;2023-12-20T02:39:16;19.80;40.50
41644;DHT22;44236;48.098;11.582;2023-12-20T02:41:42;19.80;40.40
41644;DHT22;44236;48.098;11.582;2023-12-20T02:44:07;19.80;40.50
41644;DHT22;44236;48.098;11.582;2023-12-20T02:46:33;19.80;40.50
41644;DHT22;44236;48.098;11.582;2023-12-20T02:48:58;19.80;40.60
41644;DHT22;44236;48.098;11.582;2023-12-20T02:51:24;19.70;40.60
41644;DHT22;44236;48.098;11.582;2023-12-20T02:53:49;19.70;40.70
41644;DHT22;44236;48.098;11.582;2023-12-20T02:56:15;19.70;40.90
41644;DHT22;44236;48.098;11.582;2023-12-20T02:58:41;19.70;41.20
41644;DHT22;44236;48.098;11.582;2023-12-20T03:01:06;19.60;41.10
41644;DHT22;44236;48.098;11.582;2023-12-20T03:03:32;19.60;41.40
41644;DHT22;44236;48.098;11.582;2023-12-20T03:05:58;19.60;41.40
41644;DHT22;44236;48.098;11.582;2023-12-20T03:08:23;19.60;41.50
41644;DHT22;44236;48.098;11.582;2023-12-20T03:10:49;19.60;41.50
41644;DHT22;44236;48.098;11.582;2023-12-20T03:13:15;19.60;41.00
41644;DHT22;44236;48.098;11.582;2023-12-20T03:15:40;19.50;41.60
41644;DHT22;44236;48.098;11.582;2023-12-20T03:18:06;19.50;41.60
41644;DHT22;44236;48.098;11.582;2023-12-20T03:20:32;19.50;41.60
41644;DHT22;44236;48.098;11.582;2023-12-20T03:23:00;19.50;41.70
41644;DHT22;44236;48.098;11.582;2023-12-20T03:25:25;19.50;41.40
41644;DHT22;44236;48.098;11.582;2023-12-20T03:27:52;19.50;41.70
41644;DHT22;44236;48.098;11.582;2023-12-20T03:30:18;19.50;41.70
41644;DHT22;44236;48.098;11.582;2023-12-20T03:32:44;19.40;41.60
41644;DHT22;44236;48.098;11.582;2023-12-20T03:35:10;19.40;41.60
41644;DHT22;44236;48.098;11.582;2023-12-20T03:37:36;19.40;41.60
41644;DHT22;44236;48.098;11.582;2023-12-20T03:40:02;19.40;41.80
41644;DHT22;44236;48.098;11.582;2023-12-20T03:42:27;19.40;41.80
41644;DHT22;44236;48.098;11.582;2023-12-20T03:44:53;19.40;41.70
41644;DHT22;44236;48.098;11.582;2023-12-20T03:47:18;19.40;41.90
41644;DHT22;44236;48.098;11.582;2023-12-20T03:49:44;19.40;41.90
41644;DHT22;44236;48.098;11.582;2023-12-20T03:52:09;19.40;41.90
41644;DHT22;44236;48.098;11.582;2023-12-20T03:54:35;19.30;41.80
41644;DHT22;44236;48.098;11.582;2023-12-20T03:57:01;19.30;41.90
41644;DHT22;44236;48.098;11.582;2023-12-20T03:59:26;19.40;41.90
41644;DHT22;44236;48.098;11.582;2023-12-20T04:01:52;19.30;41.80
41644;DHT22;44236;48.098;11.582;2023-12-20T04:04:18;19.30;42.00
41644;DHT22;44236;48.098;11.582;2023-12-20T04:06:44;19.30;41.90
41644;DHT22;44236;48.098;11.582;2023-12-20T04:09:10;19.30;41.90
41644;DHT22;44236;48.098;11.582;2023-12-20T04:11:36;19.30;41.80
41644;DHT22;44236;48.098;11.582;2023-12-20T04:14:02;19.30;41.90
41644;DHT22;44236;48.098;11.582;2023-12-20T04:16:27;19.30;41.80
41644;DHT22;44236;48.098;11.582;2023-12-20T04:18:53;19.30;41.90
41644;DHT22;44236;48.098;11.582;2023-12-20T04:21:18;19.20;41.80
41644;DHT22;44236;48.098;11.582;2023-12-20T04:23:44;19.30;42.00
41644;DHT22;44236;48.098;11.582;2023-12-20T04:26:10;19.20;41.80
41644;DHT22;44236;48.098;11.582;2023-12-20T04:28:36;19.20;41.80
41644;DHT22;44236;48.098;11.582;2023-12-20T04:31:01;19.20;41.90
41644;DHT22;44236;48.098;11.582;2023-12-20T04:33:27;19.20;41.80
41644;DHT22;44236;48.098;11.582;2023-12-20T04:35:52;19.20;42.30
41644;DHT22;44236;48.098;11.582;2023-12-20T04:38:18;19.20;41.80
41644;DHT22;44236;48.098;11.582;2023-12-20T04:40:44;19.20;41.80
41644;DHT22;44236;48.098;11.582;2023-12-20T04:43:09;19.20;42.00
41644;DHT22;44236;48.098;11.582;2023-12-20T04:45:35;19.20;41.90
41644;DHT22;44236;48.098;11.582;2023-12-20T04:48:01;19.20;41.90
41644;DHT22;44236;48.098;11.582;2023-12-20T04:50:27;19.20;41.80
41644;DHT22;44236;48.098;11.582;2023-12-20T04:52:53;19.20;41.80
41644;DHT22;44236;48.098;11.582;2023-12-20T04:55:19;19.20;41.90
41644;DHT22;44236;48.098;11.582;2023-12-20T04:57:44;19.20;41.80
41644;DHT22;44236;48.098;11.582;2023-12-20T05:00:10;19.20;41.90
41644;DHT22;44236;48.098;11.582;2023-12-20T05:02:36;19.20;42.30
41644;DHT22;44236;48.098;11.582;2023-12-20T05:05:02;19.10;41.90
41644;DHT22;44236;48.098;11.582;2023-12-20T05:07:28;19.30;42.00
41644;DHT22;44236;48.098;11.582;2023-12-20T05:09:53;19.10;41.90
41644;DHT22;44236;48.098;11.582;2023-12-20T05:12:19;19.20;42.00
41644;DHT22;44236;48.098;11.582;2023-12-20T05:14:45;19.20;42.10
41644;DHT22;44236;48.098;11.582;2023-12-20T05:17:11;19.20;42.20
41644;DHT22;44236;48.098;11.582;2023-12-20T05:19:37;19.20;42.20
41644;DHT22;44236;48.098;11.582;2023-12-20T05:22:02;19.20;42.30
41644;DHT22;44236;48.098;11.582;2023-12-20T05:24:28;19.20;42.30
41644;DHT22;44236;48.098;11.582;2023-12-20T05:26:54;19.20;42.30
41644;DHT22;44236;48.098;11.582;2023-12-20T05:29:20;19.20;42.30
41644;DHT22;44236;48.098;11.582;2023-12-20T05:31:45;18.90;42.10
41644;DHT22;44236;48.098;11.582;2023-12-20T05:34:11;19.30;42.30
41644;DHT22;44236;48.098;11.582;2023-12-20T05:36:37;19.30;42.30
41644;DHT22;44236;48.098;11.582;2023-12-20T05:39:03;19.30;42.30
41644;DHT22;44236;48.098;11.582;2023-12-20T05:41:33;19.30;42.30
41644;DHT22;44236;48.098;11.582;2023-12-20T05:43:59;19.30;42.30
41644;DHT22;44236;48.098;11.582;2023-12-20T05:46:25;19.40;42.30
41644;DHT22;44236;48.098;11.582;2023-12-20T05:48:50;19.40;42.30
41644;DHT22;44236;48.098;11.582;2023-12-20T05:51:17;19.40;42.20
41644;DHT22;44236;48.098;11.582;2023-12-20T05:53:44;19.40;42.30
41644;DHT22;44236;48.098;11.582;2023-12-20T05:56:10;19.40;42.20
41644;DHT22;44236;48.098;11.582;2023-12-20T05:58:36;19.50;42.30
41644;DHT22;44236;48.098;11.582;2023-12-20T06:01:05;19.50;42.30
41644;DHT22;44236;48.098;11.582;2023-12-20T06:03:31;19.50;42.30
41644;DHT22;44236;48.098;11.582;2023-12-20T06:05:57;19.50;42.30
41644;DHT22;44236;48.098;11.582;2023-12-20T06:08:22;19.50;42.20
41644;DHT22;44236;48.098;11.582;2023-12-20T06:10:49;19.50;42.30
41644;DHT22;44236;48.098;11.582;2023-12-20T06:13:14;19.50;42.30
41644;DHT22;44236;48.098;11.582;2023-12-20T06:15:40;19.50;42.30
41644;DHT22;44236;48.098;11.582;2023-12-20T06:18:06;19.50;42.30
41644;DHT22;44236;48.098;11.582;2023-12-20T06:20:32;19.50;42.30
41644;DHT22;44236;48.098;11.582;2023-12-20T06:22:58;19.60;42.30
41644;DHT22;44236;48.098;11.582;2023-12-20T06:25:24;19.50;41.00
41644;DHT22;44236;48.098;11.582;2023-12-20T06:27:50;19.00;41.30
41644;DHT22;44236;48.098;11.582;2023-12-20T06:30:16;18.80;42.40
41644;DHT22;44236;48.098;11.582;2023-12-20T06:32:42;18.90;42.80
41644;DHT22;44236;48.098;11.582;2023-12-20T06:35:08;18.90;42.70
41644;DHT22;44236;48.098;11.582;2023-12-20T06:37:34;19.00;42.40
41644;DHT22;44236;48.098;11.582;2023-12-20T06:40:00;19.20;42.50
41644;DHT22;44236;48.098;11.582;2023-12-20T06:42:26;19.20;42.50
41644;DHT22;44236;48.098;11.582;2023-12-20T06:44:51;19.30;42.60
41644;DHT22;44236;48.098;11.582;2023-12-20T06:47:17;19.30;42.40
41644;DHT22;44236;48.098;11.582;2023-12-20T06:49:42;19.30;42.50
41644;DHT22;44236;48.098;11.582;2023-12-20T06:52:08;19.30;42.10
41644;DHT22;44236;48.098;11.582;2023-12-20T06:54:33;19.40;42.30
41644;DHT22;44236;48.098;11.582;2023-12-20T06:57:02;19.40;42.00
41644;DHT22;44236;48.098;11.582;2023-12-20T06:59:29;19.50;42.10
41644;DHT22;44236;48.098;11.582;2023-12-20T07:01:55;19.50;42.30
41644;DHT22;44236;48.098;11.582;2023-12-20T07:04:21;19.50;42.40
41644;DHT22;44236;48.098;11.582;2023-12-20T07:06:50;19.60;42.80
41644;DHT22;44236;48.098;11.582;2023-12-20T07:09:17;19.60;42.80
41644;DHT22;44236;48.098;11.582;2023-12-20T07:11:43;19.60;43.50
41644;DHT22;44236;48.098;11.582;2023-12-20T07:14:08;19.60;44.10
41644;DHT22;44236;48.098;11.582;2023-12-20T07:16:34;19.60;43.50
41644;DHT22;44236;48.098;11.582;2023-12-20T07:19:00;19.60;43.00
41644;DHT22;44236;48.098;11.582;2023-12-20T07:21:26;19.60;42.80
41644;DHT22;44236;48.098;11.582;2023-12-20T07:23:51;19.60;42.60
41644;DHT22;44236;48.098;11.582;2023-12-20T07:26:17;19.60;42.70
41644;DHT22;44236;48.098;11.582;2023-12-20T07:28:43;19.60;42.60
41644;DHT22;44236;48.098;11.582;2023-12-20T07:31:08;19.70;42.60
41644;DHT22;44236;48.098;11.582;2023-12-20T07:33:34;19.70;42.30
41644;DHT22;44236;48.098;11.582;2023-12-20T07:36:00;19.70;42.40
41644;DHT22;44236;48.098;11.582;2023-12-20T07:38:26;19.70;42.30
41644;DHT22;44236;48.098;11.582;2023-12-20T07:40:51;19.80;42.70
41644;DHT22;44236;48.098;11.582;2023-12-20T07:43:17;19.80;43.00
41644;DHT22;44236;48.098;11.582;2023-12-20T07:45:43;19.80;42.60
41644;DHT22;44236;48.098;11.582;2023-12-20T07:48:08;19.80;43.40
41644;DHT22;44236;48.098;11.582;2023-12-20T07:50:34;19.80;43.30
41644;DHT22;44236;48.098;11.582;2023-12-20T07:53:00;19.80;43.70
41644;DHT22;44236;48.098;11.582;2023-12-20T07:55:26;19.70;43.50
41644;DHT22;44236;48.098;11.582;2023-12-20T07:57:52;19.80;43.70
41644;DHT22;44236;48.098;11.582;2023-12-20T08:00:18;19.80;43.70
41644;DHT22;44236;48.098;11.582;2023-12-20T08:02:44;19.70;43.60
41644;DHT22;44236;48.098;11.582;2023-12-20T08:05:10;19.70;43.60
41644;DHT22;44236;48.098;11.582;2023-12-20T08:07:36;19.70;43.60
41644;DHT22;44236;48.098;11.582;2023-12-20T08:10:02;19.70;43.70
41644;DHT22;44236;48.098;11.582;2023-12-20T08:12:27;19.70;43.60
41644;DHT22;44236;48.098;11.582;2023-12-20T08:14:54;19.70;43.60
41644;DHT22;44236;48.098;11.582;2023-12-20T08:17:19;19.70;43.60
41644;DHT22;44236;48.098;11.582;2023-12-20T08:19:45;19.70;43.60
41644;DHT22;44236;48.098;11.582;2023-12-20T08:22:11;19.70;43.70
41644;DHT22;44236;48.098;11.582;2023-12-20T08:24:37;19.60;43.70
41644;DHT22;44236;48.098;11.582;2023-12-20T08:27:04;19.60;43.70
41644;DHT22;44236;48.098;11.582;2023-12-20T08:29:29;19.60;43.70
41644;DHT22;44236;48.098;11.582;2023-12-20T08:31:55;19.60;43.70
41644;DHT22;44236;48.098;11.582;2023-12-20T08:34:22;19.60;43.70
41644;DHT22;44236;48.098;11.582;2023-12-20T08:36:47;19.50;43.70
41644;DHT22;44236;48.098;11.582;2023-12-20T08:39:13;19.50;43.70
41644;DHT22;44236;48.098;11.582;2023-12-20T08:41:39;19.50;43.70
41644;DHT22;44236;48.098;11.582;2023-12-20T08:44:04;19.50;43.60
41644;DHT22;44236;48.098;11.582;2023-12-20T08:46:30;19.50;43.90
41644;DHT22;44236;48.098;11.582;2023-12-20T08:48:56;19.50;43.70
41644;DHT22;44236;48.098;11.582;2023-12-20T08:51:21;19.50;43.90
41644;DHT22;44236;48.098;11.582;2023-12-20T08:53:49;19.50;43.90
41644;DHT22;44236;48.098;11.582;2023-12-20T08:56:15;19.50;43.80
41644;DHT22;44236;48.098;11.582;2023-12-20T08:58:41;19.40;43.70
41644;DHT22;44236;48.098;11.582;2023-12-20T09:01:07;19.40;43.60
41644;DHT22;44236;48.098;11.582;2023-12-20T09:03:33;19.40;43.60
41644;DHT22;44236;48.098;11.582;2023-12-20T09:05:58;19.40;43.70
41644;DHT22;44236;48.098;11.582;2023-12-20T09:08:24;19.40;43.60
41644;DHT22;44236;48.098;11.582;2023-12-20T09:10:50;19.40;43.60
41644;DHT22;44236;48.098;11.582;2023-12-20T09:13:15;19.40;43.60
41644;DHT22;44236;48.098;11.582;2023-12-20T09:15:41;19.40;43.20
41644;DHT22;44236;48.098;11.582;2023-12-20T09:18:07;19.40;43.60
41644;DHT22;44236;48.098;11.582;2023-12-20T09:20:33;19.40;43.60
41644;DHT22;44236;48.098;11.582;2023-12-20T09:22:59;19.40;43.60
41644;DHT22;44236;48.098;11.582;2023-12-20T09:25:25;19.30;43.10
41644;DHT22;44236;48.098;11.582;2023-12-20T09:27:52;19.30;43.50
41644;DHT22;44236;48.098;11.582;2023-12-20T09:30:18;19.30;43.40
41644;DHT22;44236;48.098;11.582;2023-12-20T09:32:44;19.30;43.50
41644;DHT22;44236;48.098;11.582;2023-12-20T09:35:10;19.30;43.50
41644;DHT22;44236;48.098;11.582;2023-12-20T09:37:36;19.30;43.40
41644;DHT22;44236;48.098;11.582;2023-12-20T09:40:02;19.30;43.40
41644;DHT22;44236;48.098;11.582;2023-12-20T09:45:08;19.30;43.30
41644;DHT22;44236;48.098;11.582;2023-12-20T09:47:35;19.30;43.40
41644;DHT22;44236;48.098;11.582;2023-12-20T09:50:02;19.30;43.50
41644;DHT22;44236;48.098;11.582;2023-12-20T09:52:28;19.20;43.50
41644;DHT22;44236;48.098;11.582;2023-12-20T09:54:55;19.20;43.40
41644;DHT22;44236;48.098;11.582;2023-12-20T09:57:22;19.20;43.40
41644;DHT22;44236;48.098;11.582;2023-12-20T09:59:48;19.20;43.40
41644;DHT22;44236;48.098;11.582;2023-12-20T10:02:14;19.20;43.50
41644;DHT22;44236;48.098;11.582;2023-12-20T10:04:47;19.20;43.60
41644;DHT22;44236;48.098;11.582;2023-12-20T10:07:13;19.20;43.40
41644;DHT22;44236;48.098;11.582;2023-12-20T10:09:39;19.20;43.50
41644;DHT22;44236;48.098;11.582;2023-12-20T10:12:05;19.10;43.40
41644;DHT22;44236;48.098;11.582;2023-12-20T10:14:32;19.10;43.40
41644;DHT22;44236;48.098;11.582;2023-12-20T10:17:04;19.10;43.40
41644;DHT22;44236;48.098;11.582;2023-12-20T10:19:31;19.10;43.30
41644;DHT22;44236;48.098;11.582;2023-12-20T10:22:01;19.10;43.20
41644;DHT22;44236;48.098;11.582;2023-12-20T10:24:30;19.10;43.20
41644;DHT22;44236;48.098;11.582;2023-12-20T10:27:06;19.20;43.90
41644;DHT22;44236;48.098;11.582;2023-12-20T10:29:38;19.10;43.30
41644;DHT22;44236;48.098;11.582;2023-12-20T10:32:36;19.10;43.30
41644;DHT22;44236;48.098;11.582;2023-12-20T10:35:02;19.10;43.30
41644;DHT22;44236;48.098;11.582;2023-12-20T10:37:28;19.10;43.20
41644;DHT22;44236;48.098;11.582;2023-12-20T10:39:54;19.10;43.30
41644;DHT22;44236;48.098;11.582;2023-12-20T10:42:25;19.10;43.30
41644;DHT22;44236;48.098;11.582;2023-12-20T10:44:52;19.10;43.20
41644;DHT22;44236;48.098;11.582;2023-12-20T10:47:19;19.10;43.10
41644;DHT22;44236;48.098;11.582;2023-12-20T10:49:46;19.10;43.10
41644;DHT22;44236;48.098;11.582;2023-12-20T10:52:12;19.10;43.20
41644;DHT22;44236;48.098;11.582;2023-12-20T10:54:41;19.10;42.70
41644;DHT22;44236;48.098;11.582;2023-12-20T10:57:07;19.00;43.20
41644;DHT22;44236;48.098;11.582;2023-12-20T10:59:39;19.00;43.20
41644;DHT22;44236;48.098;11.582;2023-12-20T11:02:05;19.00;43.30
41644;DHT22;44236;48.098;11.582;2023-12-20T11:04:45;19.00;43.20
41644;DHT22;44236;48.098;11.582;2023-12-20T11:07:35;19.00;43.30
41644;DHT22;44236;48.098;11.582;2023-12-20T11:10:29;19.00;43.30
41644;DHT22;44236;48.098;11.582;2023-12-20T11:13:08;19.00;43.30
41644;DHT22;44236;48.098;11.582;2023-12-20T11:15:36;19.00;43.20
41644;DHT22;44236;48.098;11.582;2023-12-20T11:18:04;19.00;43.30
41644;DHT22;44236;48.098;11.582;2023-12-20T11:20:41;19.00;43.20
41644;DHT22;44236;48.098;11.582;2023-12-20T11:23:08;19.00;43.20
41644;DHT22;44236;48.098;11.582;2023-12-20T11:25:47;19.00;43.20
41644;DHT22;44236;48.098;11.582;2023-12-20T11:28:13;19.00;43.20
41644;DHT22;44236;48.098;11.582;2023-12-20T11:30:53;19.00;43.20
41644;DHT22;44236;48.098;11.582;2023-12-20T11:33:30;18.90;43.10
41644;DHT22;44236;48.098;11.582;2023-12-20T11:35:57;18.90;43.20
41644;DHT22;44236;48.098;11.582;2023-12-20T11:38:25;19.00;43.20
41644;DHT22;44236;48.098;11.582;2023-12-20T11:40:51;19.00;43.20
41644;DHT22;44236;48.098;11.582;2023-12-20T11:43:35;19.00;43.10
41644;DHT22;44236;48.098;11.582;2023-12-20T11:46:09;19.00;43.10
41644;DHT22;44236;48.098;11.582;2023-12-20T11:48:37;19.00;43.20
41644;DHT22;44236;48.098;11.582;2023-12-20T11:51:02;18.90;43.10
41644;DHT22;44236;48.098;11.582;2023-12-20T11:53:34;18.90;43.10
41644;DHT22;44236;48.098;11.582;2023-12-20T11:56:00;18.90;43.60
41644;DHT22;44236;48.098;11.582;2023-12-20T11:58:28;18.90;43.20
41644;DHT22;44236;48.098;11.582;2023-12-20T12:00:55;18.90;43.10
41644;DHT22;44236;48.098;11.582;2023-12-20T12:03:21;18.90;43.10
41644;DHT22;44236;48.098;11.582;2023-12-20T12:05:47;18.90;43.10
41644;DHT22;44236;48.098;11.582;2023-12-20T12:08:14;18.90;43.10
41644;DHT22;44236;48.098;11.582;2023-12-20T12:10:39;18.90;43.10
41644;DHT22;44236;48.098;11.582;2023-12-20T12:13:05;18.90;43.10
41644;DHT22;44236;48.098;11.582;2023-12-20T12:15:30;18.90;43.10
41644;DHT22;44236;48.098;11.582;2023-12-20T12:17:57;18.90;43.10
41644;DHT22;44236;48.098;11.582;2023-12-20T12:20:23;18.90;43.00
41644;DHT22;44236;48.098;11.582;2023-12-20T12:23:03;18.90;43.10
41644;DHT22;44236;48.098;11.582;2023-12-20T12:25:30;18.90;43.10
41644;DHT22;44236;48.098;11.582;2023-12-20T12:27:58;18.90;43.10
41644;DHT22;44236;48.098;11.582;2023-12-20T12:30:23;18.90;43.00
41644;DHT22;44236;48.098;11.582;2023-12-20T12:32:50;18.90;43.10
41644;DHT22;44236;48.098;11.582;2023-12-20T12:35:16;18.90;43.10
41644;DHT22;44236;48.098;11.582;2023-12-20T12:37:42;18.90;43.10
41644;DHT22;44236;48.098;11.582;2023-12-20T12:40:16;18.90;43.10
41644;DHT22;44236;48.098;11.582;2023-12-20T12:42:44;18.90;43.00
41644;DHT22;44236;48.098;11.582;2023-12-20T12:45:11;18.90;42.70
41644;DHT22;44236;48.098;11.582;2023-12-20T12:47:40;18.90;43.00
41644;DHT22;44236;48.098;11.582;2023-12-20T12:50:06;18.90;43.10
41644;DHT22;44236;48.098;11.582;2023-12-20T12:52:31;18.90;43.10
41644;DHT22;44236;48.098;11.582;2023-12-20T12:54:57;18.80;43.00
41644;DHT22;44236;48.098;11.582;2023-12-20T12:57:23;18.90;43.10
41644;DHT22;44236;48.098;11.582;2023-12-20T12:59:49;18.90;43.10
41644;DHT22;44236;48.098;11.582;2023-12-20T13:02:15;18.80;43.00
41644;DHT22;44236;48.098;11.582;2023-12-20T13:04:41;18.80;43.00
41644;DHT22;44236;48.098;11.582;2023-12-20T13:07:08;18.80;43.10
41644;DHT22;44236;48.098;11.582;2023-12-20T13:09:36;18.80;43.10
41644;DHT22;44236;48.098;11.582;2023-12-20T13:12:02;18.80;43.10
41644;DHT22;44236;48.098;11.582;2023-12-20T13:14:31;18.90;43.50
41644;DHT22;44236;48.098;11.582;2023-12-20T13:16:57;18.90;43.20
41644;DHT22;44236;48.098;11.582;2023-12-20T13:19:23;18.90;43.20
41644;DHT22;44236;48.098;11.582;2023-12-20T13:21:48;18.90;43.30
41644;DHT22;44236;48.098;11.582;2023-12-20T13:24:14;18.90;43.30
41644;DHT22;44236;48.098;11.582;2023-12-20T13:26:40;19.00;43.30
41644;DHT22;44236;48.098;11.582;2023-12-20T13:29:05;18.90;43.20
41644;DHT22;44236;48.098;11.582;2023-12-20T13:31:31;18.90;43.20
41644;DHT22;44236;48.098;11.582;2023-12-20T13:33:56;18.90;43.30
41644;DHT22;44236;48.098;11.582;2023-12-20T13:36:22;19.00;43.30
41644;DHT22;44236;48.098;11.582;2023-12-20T13:38:48;19.00;43.30
41644;DHT22;44236;48.098;11.582;2023-12-20T13:41:14;19.00;43.30
41644;DHT22;44236;48.098;11.582;2023-12-20T13:43:39;19.00;43.30
41644;DHT22;44236;48.098;11.582;2023-12-20T13:46:05;19.00;43.30
41644;DHT22;44236;48.098;11.582;2023-12-20T13:48:30;19.00;43.30
41644;DHT22;44236;48.098;11.582;2023-12-20T13:50:56;19.00;43.20
41644;DHT22;44236;48.098;11.582;2023-12-20T13:53:22;19.00;43.20
41644;DHT22;44236;48.098;11.582;2023-12-20T13:55:47;19.00;43.80
41644;DHT22;44236;48.098;11.582;2023-12-20T13:58:13;19.00;43.20
41644;DHT22;44236;48.098;11.582;2023-12-20T14:00:39;19.00;43.20
41644;DHT22;44236;48.098;11.582;2023-12-20T14:03:05;19.10;43.20
41644;DHT22;44236;48.098;11.582;2023-12-20T14:05:31;19.10;43.20
41644;DHT22;44236;48.098;11.582;2023-12-20T14:07:56;19.10;43.20
41644;DHT22;44236;48.098;11.582;2023-12-20T14:10:26;19.10;43.10
41644;DHT22;44236;48.098;11.582;2023-12-20T14:12:53;19.10;43.10
41644;DHT22;44236;48.098;11.582;2023-12-20T14:15:18;19.10;43.10
41644;DHT22;44236;48.098;11.582;2023-12-20T14:17:44;19.10;43.00
41644;DHT22;44236;48.098;11.582;2023-12-20T14:20:10;19.10;43.00
41644;DHT22;44236;48.098;11.582;2023-12-20T14:22:38;19.20;43.10
41644;DHT22;44236;48.098;11.582;2023-12-20T14:25:04;19.20;43.10
41644;DHT22;44236;48.098;11.582;2023-12-20T14:27:30;19.20;43.10
41644;DHT22;44236;48.098;11.582;2023-12-20T14:29:55;19.20;43.00
41644;DHT22;44236;48.098;11.582;2023-12-20T14:32:21;19.20;43.00
41644;DHT22;44236;48.098;11.582;2023-12-20T14:34:47;19.20;43.00
41644;DHT22;44236;48.098;11.582;2023-12-20T14:37:13;19.20;43.00
41644;DHT22;44236;48.098;11.582;2023-12-20T14:39:39;19.20;42.90
41644;DHT22;44236;48.098;11.582;2023-12-20T14:42:07;19.30;43.00
41644;DHT22;44236;48.098;11.582;2023-12-20T14:44:36;19.30;42.90
41644;DHT22;44236;48.098;11.582;2023-12-20T14:47:02;19.30;42.90
41644;DHT22;44236;48.098;11.582;2023-12-20T14:49:28;19.30;42.90
41644;DHT22;44236;48.098;11.582;2023-12-20T14:51:54;19.30;42.80
41644;DHT22;44236;48.098;11.582;2023-12-20T14:54:19;19.30;42.90
41644;DHT22;44236;48.098;11.582;2023-12-20T14:56:46;19.30;42.90
41644;DHT22;44236;48.098;11.582;2023-12-20T14:59:12;19.30;42.90
41644;DHT22;44236;48.098;11.582;2023-12-20T15:01:38;19.30;42.90
41644;DHT22;44236;48.098;11.582;2023-12-20T15:04:06;19.30;42.90
41644;DHT22;44236;48.098;11.582;2023-12-20T15:06:31;19.30;42.90
41644;DHT22;44236;48.098;11.582;2023-12-20T15:08:58;19.30;42.90
41644;DHT22;44236;48.098;11.582;2023-12-20T15:11:24;19.30;42.90
41644;DHT22;44236;48.098;11.582;2023-12-20T15:13:49;19.30;42.80